Reese Air Force Base, Texas
Current Conditions -  °F | °C
As of 4:53 AM on Sunday 23 Nov 2014 (Local Time) from KLBB Reporting Station
Scattered Clouds Scattered Clouds  
Wind Chill: 51°   Ceiling: Unl
Heat Index: 51°   Visibility: 10mi
Dew Point: 25°   Wind: 15mph
Humidity: 36%   Direction: 260°W
Pressure: 29.56"   Gusts: NA
Location:  33.5936°N, 102.0291°W
Report Text: KLBB 231053Z 26013KT 10SM FEW220 SCT260 11/M04 A2956 RMK AO2 SLP979 T01061039
Loading
Personal Weather Stations






























Interactive Weather Map New forecast layout! Learn more

10-Day Weather Forecast

Advertisements
Track Severe Weather on mobile